createdAt,value
2023-05-21T00:01:08.070Z,2.30
2023-05-21T00:03:36.500Z,3.63
2023-05-21T00:06:04.077Z,3.63
2023-05-21T00:08:31.530Z,2.20
2023-05-21T00:10:58.692Z,2.40
2023-05-21T00:13:25.933Z,3.33
2023-05-21T00:15:53.163Z,2.90
2023-05-21T00:18:20.477Z,3.53
2023-05-21T00:20:47.776Z,3.53
2023-05-21T00:23:18.713Z,3.40
2023-05-21T00:25:46.859Z,3.35
2023-05-21T00:28:14.205Z,4.72
2023-05-21T00:30:43.146Z,3.83
2023-05-21T00:33:14.052Z,6.50
2023-05-21T00:35:41.453Z,4.05
2023-05-21T00:38:08.877Z,3.45
2023-05-21T00:40:36.624Z,4.15
2023-05-21T00:43:04.602Z,3.10
2023-05-21T00:45:31.810Z,3.40
2023-05-21T00:47:59.693Z,5.60
2023-05-21T00:50:26.890Z,3.80
2023-05-21T00:52:54.545Z,5.18
2023-05-21T00:55:21.964Z,5.50
2023-05-21T00:57:49.646Z,4.63
2023-05-21T01:00:17.093Z,7.32
2023-05-21T01:02:44.776Z,4.82
2023-05-21T01:05:13.120Z,5.10
2023-05-21T01:07:41.838Z,8.13
2023-05-21T01:10:11.074Z,7.15
2023-05-21T01:12:41.884Z,6.95
2023-05-21T01:15:10.913Z,5.68
2023-05-21T01:17:39.961Z,4.72
2023-05-21T01:20:11.513Z,6.57
2023-05-21T01:22:44.095Z,5.22
2023-05-21T01:25:11.508Z,8.88
2023-05-21T01:27:38.779Z,3.95
2023-05-21T01:30:07.453Z,3.78
2023-05-21T01:32:55.981Z,7.30
2023-05-21T01:35:27.958Z,7.18
2023-05-21T01:38:20.139Z,5.05
2023-05-21T01:40:54.392Z,5.03
2023-05-21T01:43:23.727Z,6.10
2023-05-21T01:45:55.376Z,5.00
2023-05-21T01:48:27.531Z,10.73
2023-05-21T01:50:57.848Z,8.27
2023-05-21T01:53:25.256Z,4.95
2023-05-21T01:55:52.610Z,5.28
2023-05-21T01:58:21.284Z,4.45
2023-05-21T02:00:51.143Z,7.15
2023-05-21T02:03:19.669Z,6.35
2023-05-21T02:05:47.436Z,6.82
2023-05-21T02:08:15.520Z,5.53
2023-05-21T02:10:42.778Z,5.78
2023-05-21T02:13:09.990Z,4.88
2023-05-21T02:15:39.044Z,8.02
2023-05-21T02:18:06.546Z,4.90
2023-05-21T02:20:33.780Z,5.45
2023-05-21T02:23:01.030Z,5.97
2023-05-21T02:25:28.367Z,8.02
2023-05-21T02:27:56.910Z,5.68
2023-05-21T02:30:24.132Z,5.53
2023-05-21T02:32:51.399Z,6.00
2023-05-21T02:35:18.777Z,6.82
2023-05-21T02:37:46.025Z,5.65
2023-05-21T02:40:13.401Z,4.57
2023-05-21T02:42:41.636Z,4.60
2023-05-21T02:45:13.403Z,6.55
2023-05-21T02:47:43.168Z,4.28
2023-05-21T02:50:10.438Z,4.95
2023-05-21T02:52:57.115Z,5.30
2023-05-21T02:55:24.273Z,4.13
2023-05-21T02:57:51.474Z,3.92
2023-05-21T03:00:18.796Z,2.80
2023-05-21T03:02:46.247Z,3.72
2023-05-21T03:05:13.838Z,2.65
2023-05-21T03:07:42.109Z,4.45
2023-05-21T03:10:10.239Z,3.15
2023-05-21T03:12:38.160Z,4.95
2023-05-21T03:15:05.761Z,5.45
2023-05-21T03:17:33.453Z,3.45
2023-05-21T03:20:01.280Z,3.55
2023-05-21T03:22:28.536Z,5.90
2023-05-21T03:24:56.082Z,6.25
2023-05-21T03:27:24.292Z,4.47
2023-05-21T03:29:52.014Z,3.15
2023-05-21T03:32:19.397Z,6.95
2023-05-21T03:34:48.715Z,3.42
2023-05-21T03:37:18.039Z,3.88
2023-05-21T03:39:45.338Z,3.50
2023-05-21T03:42:14.264Z,6.60
2023-05-21T03:44:47.078Z,5.05
2023-05-21T03:47:34.092Z,5.25
2023-05-21T03:50:03.752Z,5.95
2023-05-21T03:52:31.230Z,4.30
2023-05-21T03:54:58.695Z,5.18
2023-05-21T03:57:25.983Z,4.38
2023-05-21T03:59:53.236Z,7.50
2023-05-21T04:02:22.462Z,3.53
2023-05-21T04:04:51.784Z,4.78
2023-05-21T04:07:22.465Z,9.20
2023-05-21T04:09:49.794Z,4.72
2023-05-21T04:12:19.225Z,6.22
2023-05-21T04:14:48.499Z,5.93
2023-05-21T04:17:15.874Z,7.60
2023-05-21T04:19:44.652Z,8.10
2023-05-21T04:22:12.377Z,6.28
2023-05-21T04:24:39.778Z,6.03
2023-05-21T04:27:16.800Z,6.25
2023-05-21T04:29:44.860Z,7.13
2023-05-21T04:32:15.167Z,8.25
2023-05-21T04:34:43.036Z,4.55
2023-05-21T04:37:10.692Z,6.43
2023-05-21T04:39:37.920Z,4.13
2023-05-21T04:42:05.554Z,6.32
2023-05-21T04:44:32.725Z,7.68
2023-05-21T04:47:02.312Z,4.70
2023-05-21T04:49:30.222Z,6.00
2023-05-21T04:51:57.372Z,8.25
2023-05-21T04:54:24.579Z,5.65
2023-05-21T04:56:51.866Z,4.10
2023-05-21T04:59:20.060Z,7.43
2023-05-21T05:01:47.346Z,4.95
2023-05-21T05:04:14.455Z,6.15
2023-05-21T05:06:41.650Z,3.28
2023-05-21T05:09:08.836Z,6.85
2023-05-21T05:11:36.606Z,3.40
2023-05-21T05:14:07.395Z,4.78
2023-05-21T05:16:35.746Z,4.15
2023-05-21T05:19:03.194Z,5.53
2023-05-21T05:21:30.750Z,6.18
2023-05-21T05:24:00.115Z,3.28
2023-05-21T05:26:29.748Z,3.17
2023-05-21T05:28:57.323Z,6.93
2023-05-21T05:31:24.602Z,5.55
2023-05-21T05:33:53.077Z,4.53
2023-05-21T05:36:21.588Z,5.72
2023-05-21T05:38:48.988Z,4.10
2023-05-21T05:41:17.125Z,4.75
2023-05-21T05:43:44.620Z,4.20
2023-05-21T05:46:13.038Z,5.43
2023-05-21T05:48:40.255Z,3.40
2023-05-21T05:51:07.898Z,4.03
2023-05-21T05:53:35.699Z,6.35
2023-05-21T05:56:03.086Z,4.72
2023-05-21T05:58:31.670Z,7.05
2023-05-21T06:01:09.005Z,6.68
2023-05-21T06:03:36.644Z,3.53
2023-05-21T06:06:12.219Z,5.82
2023-05-21T06:08:40.702Z,4.63
2023-05-21T06:11:08.032Z,5.90
2023-05-21T06:13:35.257Z,5.35
2023-05-21T06:16:04.320Z,4.68
2023-05-21T06:18:31.638Z,5.75
2023-05-21T06:20:58.812Z,4.22
2023-05-21T06:23:27.907Z,4.40
2023-05-21T06:25:55.995Z,6.22
2023-05-21T06:28:25.580Z,4.15
2023-05-21T06:30:54.285Z,6.05
2023-05-21T06:33:21.650Z,3.22
2023-05-21T06:35:48.937Z,4.03
2023-05-21T06:38:16.262Z,4.78
2023-05-21T06:40:44.758Z,5.93
2023-05-21T06:43:17.325Z,4.25
2023-05-21T06:46:03.309Z,4.68
2023-05-21T06:48:39.646Z,4.32
2023-05-21T06:51:07.077Z,6.32
2023-05-21T06:53:34.487Z,4.60
2023-05-21T06:56:01.641Z,7.55
2023-05-21T07:01:12.088Z,9.05
2023-05-21T07:03:39.450Z,3.88
2023-05-21T07:06:08.688Z,3.85
2023-05-21T07:08:36.068Z,8.15
2023-05-21T07:11:03.897Z,2.80
2023-05-21T07:13:31.364Z,3.92
2023-05-21T07:15:58.591Z,4.72
2023-05-21T07:18:27.818Z,4.50
2023-05-21T07:20:55.266Z,4.18
2023-05-21T07:23:22.531Z,4.95
2023-05-21T07:25:49.791Z,5.75
2023-05-21T07:28:17.353Z,6.50
2023-05-21T07:30:45.013Z,4.78
2023-05-21T07:33:16.520Z,4.53
2023-05-21T07:35:45.079Z,4.65
2023-05-21T07:38:12.472Z,8.13
2023-05-21T07:40:39.981Z,7.22
2023-05-21T07:43:07.435Z,3.83
2023-05-21T07:45:36.428Z,5.32
2023-05-21T07:48:05.405Z,4.40
2023-05-21T07:50:34.741Z,6.80
2023-05-21T07:53:02.089Z,4.93
2023-05-21T07:55:30.693Z,5.53
2023-05-21T07:57:57.989Z,6.57
2023-05-21T08:00:29.236Z,4.85
2023-05-21T08:02:58.249Z,3.85
2023-05-21T08:05:26.545Z,3.85
2023-05-21T08:07:53.912Z,5.78
2023-05-21T08:10:22.054Z,2.92
2023-05-21T08:12:51.195Z,6.20
2023-05-21T08:15:19.268Z,6.30
2023-05-21T08:17:46.626Z,4.75
2023-05-21T08:20:15.630Z,4.40
2023-05-21T08:22:45.171Z,3.40
2023-05-21T08:25:12.441Z,5.40
2023-05-21T08:27:39.861Z,3.83
2023-05-21T08:30:08.064Z,4.85
2023-05-21T08:32:35.710Z,4.13
2023-05-21T08:35:03.452Z,5.78
2023-05-21T08:37:51.468Z,4.32
2023-05-21T08:40:27.269Z,4.30
2023-05-21T08:42:54.649Z,4.63
2023-05-21T08:45:42.595Z,5.35
2023-05-21T08:48:12.375Z,4.35
2023-05-21T08:50:41.637Z,4.20
2023-05-21T08:53:26.671Z,3.55
2023-05-21T08:55:57.644Z,3.20
2023-05-21T08:58:33.912Z,3.97
2023-05-21T09:01:02.634Z,5.45
2023-05-21T09:03:33.166Z,5.18
2023-05-21T09:06:00.950Z,8.52
2023-05-21T09:08:35.991Z,5.13
2023-05-21T09:11:11.905Z,3.85
2023-05-21T09:13:46.427Z,3.67
2023-05-21T09:16:21.580Z,4.63
2023-05-21T09:18:49.798Z,6.05
2023-05-21T09:21:31.477Z,8.50
2023-05-21T09:24:04.477Z,3.85
2023-05-21T09:26:31.747Z,3.78
2023-05-21T09:29:03.774Z,5.50
2023-05-21T09:31:31.131Z,5.07
2023-05-21T09:33:58.399Z,6.15
2023-05-21T09:36:27.180Z,7.50
2023-05-21T09:38:54.524Z,5.55
2023-05-21T09:41:32.819Z,5.28
2023-05-21T09:44:03.452Z,5.63
2023-05-21T09:46:41.953Z,5.77
2023-05-21T09:49:26.655Z,4.43
2023-05-21T09:51:58.976Z,4.22
2023-05-21T09:54:31.751Z,8.17
2023-05-21T09:57:01.814Z,4.55
2023-05-21T09:59:41.804Z,8.93
2023-05-21T10:02:23.093Z,5.53
2023-05-21T10:04:51.991Z,7.30
2023-05-21T10:07:26.550Z,5.65
2023-05-21T10:09:58.973Z,4.72
2023-05-21T10:12:27.950Z,5.97
2023-05-21T10:15:01.727Z,7.00
2023-05-21T10:17:30.615Z,3.10
2023-05-21T10:19:59.538Z,8.85
2023-05-21T10:22:26.868Z,4.88
2023-05-21T10:24:55.808Z,5.43
2023-05-21T10:27:23.466Z,4.50
2023-05-21T10:29:51.951Z,4.40
2023-05-21T10:32:21.727Z,7.68
2023-05-21T10:34:49.610Z,6.45
2023-05-21T10:37:17.018Z,5.97
2023-05-21T10:39:46.047Z,3.58
2023-05-21T10:42:22.030Z,4.30
2023-05-21T10:45:00.838Z,4.28
2023-05-21T10:47:54.380Z,6.30
2023-05-21T10:50:21.680Z,7.13
2023-05-21T10:53:33.463Z,6.32
2023-05-21T10:56:15.808Z,5.18
2023-05-21T10:59:01.223Z,5.75
2023-05-21T11:01:34.304Z,9.13
2023-05-21T11:04:02.030Z,8.23
2023-05-21T11:06:29.307Z,6.25
2023-05-21T11:08:56.658Z,5.50
2023-05-21T11:11:50.972Z,8.45
2023-05-21T11:14:41.001Z,6.60
2023-05-21T11:17:16.258Z,7.38
2023-05-21T11:19:47.508Z,5.15
2023-05-21T11:22:25.691Z,6.90
2023-05-21T11:24:54.370Z,7.43
2023-05-21T11:27:34.865Z,7.00
2023-05-21T11:30:09.982Z,7.68
2023-05-21T11:32:38.989Z,7.18
2023-05-21T11:35:06.883Z,5.63
2023-05-21T11:37:38.744Z,8.30
2023-05-21T11:40:26.351Z,7.13
2023-05-21T11:42:55.738Z,6.65
2023-05-21T11:45:28.261Z,8.68
2023-05-21T11:47:56.692Z,6.88
2023-05-21T11:50:24.162Z,8.00
2023-05-21T11:52:52.072Z,9.73
2023-05-21T11:55:26.110Z,8.85
2023-05-21T11:57:54.646Z,9.07
2023-05-21T12:00:22.056Z,10.63
2023-05-21T12:02:53.985Z,8.05
2023-05-21T12:07:50.426Z,6.28
2023-05-21T12:10:21.297Z,8.85
2023-05-21T12:12:55.895Z,9.18
2023-05-21T12:15:26.530Z,7.53
2023-05-21T12:17:55.220Z,14.32
2023-05-21T12:20:22.873Z,12.77
2023-05-21T12:22:50.597Z,7.32
2023-05-21T12:25:21.375Z,7.28
2023-05-21T12:27:52.825Z,7.80
2023-05-21T12:30:21.302Z,9.18
2023-05-21T12:32:49.439Z,7.63
2023-05-21T12:35:26.246Z,8.32
2023-05-21T12:37:53.854Z,9.48
2023-05-21T12:40:21.290Z,8.13
2023-05-21T12:42:48.558Z,11.27
2023-05-21T12:45:18.763Z,10.02
2023-05-21T12:47:49.226Z,10.20
2023-05-21T12:50:21.275Z,9.18
2023-05-21T12:52:48.666Z,9.77
2023-05-21T12:55:16.952Z,8.27
2023-05-21T12:57:44.105Z,10.10
2023-05-21T13:00:12.032Z,10.57
2023-05-21T13:02:41.224Z,9.18
2023-05-21T13:05:10.679Z,7.60
2023-05-21T13:07:39.813Z,9.85
2023-05-21T13:10:07.698Z,11.73
2023-05-21T13:12:35.477Z,9.07
2023-05-21T13:15:04.836Z,11.15
2023-05-21T13:17:32.270Z,6.72
2023-05-21T13:20:09.367Z,11.98
2023-05-21T13:22:47.870Z,8.32
2023-05-21T13:25:24.910Z,14.30
2023-05-21T13:27:53.178Z,8.88
2023-05-21T13:30:21.304Z,10.00
2023-05-21T13:32:48.956Z,11.77
2023-05-21T13:35:17.280Z,10.20
2023-05-21T13:37:45.420Z,10.15
2023-05-21T13:40:17.207Z,8.68
2023-05-21T13:42:46.405Z,9.32
2023-05-21T13:45:15.727Z,9.85
2023-05-21T13:47:44.823Z,9.75
2023-05-21T13:50:12.416Z,9.07
2023-05-21T13:52:40.232Z,14.15
2023-05-21T13:55:07.953Z,12.98
2023-05-21T13:57:35.278Z,12.15
2023-05-21T14:00:03.313Z,12.32
2023-05-21T14:02:35.087Z,10.02
2023-05-21T14:05:02.447Z,11.77
2023-05-21T14:07:29.663Z,9.30
2023-05-21T14:09:56.974Z,12.35
2023-05-21T14:12:24.113Z,12.82
2023-05-21T14:14:51.783Z,15.00
2023-05-21T14:17:19.011Z,11.90
2023-05-21T14:19:48.124Z,9.93
2023-05-21T14:22:15.376Z,13.25
2023-05-21T14:24:42.602Z,13.90
2023-05-21T14:27:09.768Z,13.13
2023-05-21T14:29:36.963Z,12.82
2023-05-21T14:32:04.481Z,11.38
2023-05-21T14:34:31.603Z,11.05
2023-05-21T14:36:58.904Z,13.13
2023-05-21T14:39:26.054Z,11.95
2023-05-21T14:41:53.936Z,14.30
2023-05-21T14:44:21.213Z,11.85
2023-05-21T14:46:48.500Z,12.25
2023-05-21T14:49:15.831Z,12.13
2023-05-21T14:51:43.819Z,13.25
2023-05-21T14:54:10.953Z,12.40
2023-05-21T14:56:38.105Z,12.95
2023-05-21T14:59:05.576Z,12.27
2023-05-21T15:01:32.817Z,13.10
2023-05-21T15:04:00.323Z,10.18
2023-05-21T15:06:27.922Z,14.73
2023-05-21T15:08:55.190Z,15.77
2023-05-21T15:11:22.587Z,11.60
2023-05-21T15:13:49.752Z,10.95
2023-05-21T15:16:19.441Z,12.57
2023-05-21T15:18:47.090Z,13.90
2023-05-21T15:21:14.252Z,9.85
2023-05-21T15:23:41.891Z,13.57
2023-05-21T15:26:09.395Z,13.82
2023-05-21T15:28:36.599Z,11.82
2023-05-21T15:31:03.733Z,11.90
2023-05-21T15:33:30.946Z,14.65
2023-05-21T15:35:58.205Z,14.68
2023-05-21T15:38:25.783Z,12.85
2023-05-21T15:40:53.052Z,11.50
2023-05-21T15:43:20.274Z,11.13
2023-05-21T15:45:47.437Z,15.15
2023-05-21T15:48:14.868Z,13.18
2023-05-21T15:50:41.998Z,15.38
2023-05-21T15:53:11.182Z,14.73
2023-05-21T15:55:39.053Z,10.77
2023-05-21T15:58:06.592Z,11.68
2023-05-21T16:00:34.464Z,11.35
2023-05-21T16:03:02.558Z,12.95
2023-05-21T16:05:29.779Z,12.00
2023-05-21T16:07:56.990Z,14.55
2023-05-21T16:10:25.171Z,16.52
2023-05-21T16:12:52.632Z,13.88
2023-05-21T16:15:19.777Z,14.82
2023-05-21T16:17:47.103Z,10.38
2023-05-21T16:20:14.487Z,11.07
2023-05-21T16:22:41.799Z,11.88
2023-05-21T16:25:36.182Z,12.55
2023-05-21T16:28:06.257Z,11.50
2023-05-21T16:30:34.423Z,12.23
2023-05-21T16:33:11.576Z,11.35
